Time;durP1;ratioP1;P1;durP2;ratioP2;P2;SDS_P1;SDS_P2;PMS_P1;PMS_P2;Temp;Humidity;BMP_temperature;BMP_pressure;BME280_temperature;BME280_humidity;BME280_pressure;Samples;Min_cycle;Max_cycle;Signal;HPM_P1;HPM_P2
2022/09/17 00:00:51;;;;;;;4.60;4.40;;;;;;;9.56;100.00;100764.03;6029167;23;20541;-70
2022/09/17 00:03:17;;;;;;;4.75;4.38;;;;;;;9.71;100.00;100780.84;6002456;23;20023;-69
2022/09/17 00:05:44;;;;;;;6.97;4.03;;;;;;;9.71;100.00;100776.44;6027677;23;20010;-70
2022/09/17 00:08:13;;;;;;;4.95;4.75;;;;;;;8.98;100.00;100655.03;6026198;23;20031;-70
2022/09/17 00:10:41;;;;;;;4.70;4.50;;;;;;;9.72;100.00;100783.38;6035090;23;20019;-70
2022/09/17 00:13:08;;;;;;;5.28;5.07;;;;;;;9.72;100.00;100786.00;6030198;23;20023;-70
2022/09/17 00:15:42;;;;;;;4.68;4.47;;;;;;;9.73;100.00;100784.22;6032125;23;20018;-70
2022/09/17 00:18:08;;;;;;;4.38;4.18;;;;;;;9.74;100.00;100771.06;6035717;23;20073;-69
2022/09/17 00:20:40;;;;;;;4.53;4.18;;;;;;;9.77;100.00;100775.31;6027349;23;20069;-71
2022/09/17 00:23:09;;;;;;;7.28;4.57;;;;;;;9.41;100.00;100726.34;6032441;23;20022;-71
2022/09/17 00:25:42;;;;;;;4.55;4.28;;;;;;;9.73;100.00;100779.00;6035225;23;20017;-70
2022/09/17 00:28:09;;;;;;;5.20;5.00;;;;;;;9.70;100.00;100780.00;6028152;23;20023;-71
2022/09/17 00:30:39;;;;;;;5.00;4.80;;;;;;;9.30;100.00;100725.97;6036755;23;20006;-71
2022/09/17 00:33:06;;;;;;;5.57;5.30;;;;;;;9.32;100.00;100722.38;6030881;23;20474;-68
2022/09/17 00:35:32;;;;;;;4.15;3.95;;;;;;;9.71;100.00;100781.69;6030098;23;20033;-71
2022/09/17 00:37:59;;;;;;;4.72;4.53;;;;;;;9.29;100.00;100716.44;6022959;23;20624;-71
2022/09/17 00:40:25;;;;;;;4.13;3.92;;;;;;;9.46;100.00;100744.44;6028879;23;20065;-71
2022/09/17 00:42:52;;;;;;;4.60;4.20;;;;;;;9.72;100.00;100778.16;6040640;23;20022;-69
2022/09/17 00:45:18;;;;;;;7.18;4.60;;;;;;;9.56;100.00;100761.44;6044972;23;20022;-69
2022/09/17 00:48:00;;;;;;;4.68;4.38;;;;;;;9.45;100.00;100740.97;6062422;23;20092;-70
2022/09/17 00:50:32;;;;;;;4.25;4.05;;;;;;;9.71;100.00;100775.59;6043716;23;20034;-70
2022/09/17 00:53:16;;;;;;;6.05;5.57;;;;;;;9.70;100.00;100781.75;6050485;23;20026;-70
2022/09/17 00:55:56;;;;;;;4.43;4.22;;;;;;;8.78;100.00;100646.31;6052645;23;20034;-70
2022/09/17 00:58:24;;;;;;;5.05;4.55;;;;;;;9.41;100.00;100752.53;6023896;23;20052;-70
2022/09/17 01:00:51;;;;;;;4.30;4.10;;;;;;;9.56;100.00;100782.38;6051563;23;20650;-70
2022/09/17 01:03:17;;;;;;;4.53;4.32;;;;;;;9.36;100.00;100760.59;6056040;23;20439;-70
2022/09/17 01:05:59;;;;;;;4.40;4.20;;;;;;;9.59;100.00;100784.88;6050244;23;20034;-69
2022/09/17 01:08:59;;;;;;;4.30;4.10;;;;;;;9.57;100.00;100784.94;6063121;23;20014;-70
2022/09/17 01:11:47;;;;;;;4.00;3.80;;;;;;;9.59;100.00;100784.88;6051859;23;20026;-69
2022/09/17 01:14:35;;;;;;;4.53;4.18;;;;;;;9.61;100.00;100784.81;6053204;23;20455;-70
2022/09/17 01:17:11;;;;;;;5.45;5.20;;;;;;;9.59;100.00;100790.13;6042174;23;20042;-70
2022/09/17 01:20:14;;;;;;;4.38;4.18;;;;;;;9.57;100.00;100781.47;6025403;23;20026;-70
2022/09/17 01:23:00;;;;;;;4.40;4.20;;;;;;;9.57;100.00;100786.72;6044629;23;20088;-70
2022/09/17 01:25:51;;;;;;;4.10;3.90;;;;;;;9.51;100.00;100787.84;6043680;23;20535;-70
2022/09/17 01:28:39;;;;;;;4.18;3.97;;;;;;;9.48;100.00;100795.88;6041006;23;20061;-70
2022/09/17 01:31:22;;;;;;;5.75;5.45;;;;;;;9.43;100.00;100802.22;6055813;23;20030;-70
2022/09/17 01:33:52;;;;;;;;;;;;;;;9.42;100.00;100798.78;6042560;23;20028;-70
2022/09/17 01:36:33;;;;;;;4.07;3.88;;;;;;;9.45;100.00;100809.09;6062564;23;19922;-70
2022/09/17 01:39:18;;;;;;;5.88;5.43;;;;;;;9.28;100.00;100760.09;6042536;23;20022;-70
2022/09/17 01:41:53;;;;;;;4.45;4.25;;;;;;;9.12;100.00;100736.41;6052128;23;20022;-70
2022/09/17 01:44:28;;;;;;;4.35;4.15;;;;;;;9.26;100.00;100758.47;6050356;23;20060;-69
2022/09/17 01:47:05;;;;;;;5.53;5.22;;;;;;;9.29;100.00;100768.81;6023390;23;20022;-69
2022/09/17 01:49:36;;;;;;;4.32;4.13;;;;;;;8.92;100.00;100715.47;6026815;23;20042;-70
2022/09/17 01:52:04;;;;;;;5.68;5.38;;;;;;;9.46;100.00;100807.31;6017553;23;20026;-69
2022/09/17 01:54:36;;;;;;;4.53;4.32;;;;;;;8.69;100.00;100679.88;6049914;23;20034;-69
2022/09/17 01:57:13;;;;;;;4.28;4.07;;;;;;;9.37;100.00;100805.97;6044577;23;20019;-69
2022/09/17 01:59:49;;;;;;;4.53;4.32;;;;;;;9.31;100.00;100811.50;6045762;23;20026;-70
2022/09/17 02:02:24;;;;;;;4.65;4.45;;;;;;;9.25;100.00;100803.91;6032348;23;20527;-70
2022/09/17 02:05:19;;;;;;;4.05;3.85;;;;;;;9.19;100.00;100805.03;6054801;23;20092;-69
2022/09/17 02:08:04;;;;;;;5.28;4.20;;;;;;;9.23;100.00;100813.59;6020806;23;20077;-69
2022/09/17 02:10:41;;;;;;;4.18;3.97;;;;;;;8.69;100.00;100725.22;6027443;23;20023;-70
2022/09/17 02:13:15;;;;;;;4.32;4.13;;;;;;;9.11;100.00;100786.19;6054731;23;20022;-70
2022/09/17 02:15:48;;;;;;;4.60;4.40;;;;;;;9.25;100.00;100793.44;6051972;23;20026;-69
2022/09/17 02:18:34;;;;;;;;;;;;;;;9.38;100.00;100810.28;6055129;23;20007;-70
2022/09/17 02:21:15;;;;;;;5.40;5.10;;;;;;;9.41;100.00;100802.28;6011067;23;20526;-70
2022/09/17 02:24:02;;;;;;;4.32;4.10;;;;;;;9.22;100.00;100767.38;6053663;23;20022;-70
2022/09/17 02:26:29;;;;;;;5.32;5.00;;;;;;;8.98;100.00;100723.09;6038382;23;20095;-70
2022/09/17 02:29:01;;;;;;;6.30;5.03;;;;;;;9.00;100.00;100736.94;6043314;23;20025;-69
2022/09/17 02:31:28;;;;;;;4.65;4.22;;;;;;;9.54;100.00;100810.44;6033117;23;20003;-69
2022/09/17 02:34:00;;;;;;;4.68;4.47;;;;;;;9.51;100.00;100810.59;6014361;23;20019;-69
2022/09/17 02:36:27;;;;;;;4.75;4.43;;;;;;;9.53;100.00;100798.25;6051028;23;20030;-69
2022/09/17 02:39:00;;;;;;;5.32;5.03;;;;;;;9.12;100.00;100754.72;6048802;23;20026;-70
2022/09/17 02:41:59;;;;;;;4.82;4.50;;;;;;;9.52;100.00;100809.66;6053152;23;20014;-69
2022/09/17 02:44:54;;;;;;;4.43;4.22;;;;;;;9.57;100.00;100815.53;6030660;23;20015;-69
2022/09/17 02:47:36;;;;;;;4.20;4.00;;;;;;;9.57;100.00;100816.38;6064501;23;20411;-70
2022/09/17 02:50:26;;;;;;;5.95;5.65;;;;;;;9.57;100.00;100810.28;6060604;23;20006;-69
2022/09/17 02:53:18;;;;;;;5.03;4.72;;;;;;;9.59;100.00;100803.22;6025053;23;20080;-70
2022/09/17 02:55:59;;;;;;;4.27;4.07;;;;;;;9.46;100.00;100784.59;6058007;23;20034;-69
2022/09/17 02:58:40;;;;;;;4.00;3.80;;;;;;;9.29;100.00;100756.56;6044660;23;20026;-70
2022/09/17 03:01:18;;;;;;;5.30;5.10;;;;;;;9.63;100.00;100810.00;6054557;23;20022;-70
2022/09/17 03:03:49;;;;;;;4.25;4.05;;;;;;;9.26;100.00;100742.75;6057277;23;20043;-70
2022/09/17 03:06:17;;;;;;;4.30;4.10;;;;;;;9.66;100.00;100809.00;6056603;23;20027;-70
2022/09/17 03:08:46;;;;;;;4.20;4.00;;;;;;;9.64;100.00;100809.09;6061774;23;20010;-69
2022/09/17 03:11:13;;;;;;;4.93;4.72;;;;;;;9.64;100.00;100814.34;6054650;23;20032;-69
2022/09/17 03:13:40;;;;;;;3.83;3.72;;;;;;;9.03;100.00;100710.63;6044651;23;20581;-69
2022/09/17 03:16:06;;;;;;;6.88;5.43;;;;;;;9.27;100.00;100761.00;6059183;23;20092;-69
2022/09/17 03:18:33;;;;;;;4.40;4.20;;;;;;;9.15;100.00;100740.63;6054218;23;20026;-70
2022/09/17 03:20:59;;;;;;;5.57;5.35;;;;;;;9.59;100.00;100824.19;6028836;23;20085;-70
2022/09/17 03:23:26;;;;;;;4.00;3.80;;;;;;;9.27;100.00;100773.25;6047106;23;20030;-70
2022/09/17 03:25:54;;;;;;;6.07;4.90;;;;;;;9.59;100.00;100819.78;6064599;23;20017;-70
2022/09/17 03:28:20;;;;;;;4.20;4.00;;;;;;;8.96;100.00;100720.53;6057221;23;20034;-69
2022/09/17 03:30:47;;;;;;;4.20;4.00;;;;;;;9.51;100.00;100807.97;6055154;23;20032;-70
2022/09/17 03:33:13;;;;;;;4.75;4.55;;;;;;;9.09;100.00;100740.91;6048167;23;20038;-70
2022/09/17 03:35:44;;;;;;;4.40;4.20;;;;;;;9.35;100.00;100768.53;6032841;23;20341;-70
2022/09/17 03:38:11;;;;;;;5.63;5.32;;;;;;;9.60;100.00;100802.28;6053560;23;20094;-69
2022/09/17 03:40:39;;;;;;;4.22;3.88;;;;;;;9.48;100.00;100793.25;6026072;23;20574;-70
2022/09/17 03:43:06;;;;;;;5.65;5.43;;;;;;;9.65;100.00;100812.56;6064604;23;20019;-70
2022/09/17 03:45:32;;;;;;;4.07;3.88;;;;;;;9.33;100.00;100765.97;6032379;23;20017;-70
2022/09/17 03:47:58;;;;;;;6.20;5.90;;;;;;;9.47;100.00;100783.66;6053508;23;20090;-70
2022/09/17 03:50:25;;;;;;;4.45;4.25;;;;;;;9.52;100.00;100799.16;6064827;23;20084;-70
2022/09/17 03:52:51;;;;;;;8.13;4.40;;;;;;;9.22;100.00;100751.66;6055861;23;20014;-69
2022/09/17 03:55:18;;;;;;;4.20;4.00;;;;;;;9.64;100.00;100827.44;6057401;23;20038;-70
2022/09/17 03:57:44;;;;;;;4.50;4.30;;;;;;;9.04;100.00;100740.25;6048361;23;20068;-70
2022/09/17 04:00:11;;;;;;;5.57;5.18;;;;;;;9.53;100.00;100825.31;6053757;23;20014;-70
2022/09/17 04:02:38;;;;;;;4.70;4.40;;;;;;;8.90;100.00;100723.41;6052782;23;20611;-70
2022/09/17 04:05:05;;;;;;;11.48;6.22;;;;;;;9.41;100.00;100825.03;6052191;23;20010;-70
2022/09/17 04:07:31;;;;;;;4.10;3.90;;;;;;;9.02;100.00;100765.66;6051976;23;20026;-70
2022/09/17 04:09:58;;;;;;;6.15;5.75;;;;;;;9.23;100.00;100826.69;6047907;23;20601;-69
2022/09/17 04:12:24;;;;;;;9.27;4.47;;;;;;;8.55;100.00;100715.34;6024072;23;20037;-69
2022/09/17 04:14:51;;;;;;;4.20;4.00;;;;;;;8.12;100.00;100688.41;6041282;23;20069;-70
2022/09/17 04:17:17;;;;;;;4.50;4.30;;;;;;;9.11;100.00;100828.09;6053961;23;20650;-70
2022/09/17 04:19:44;;;;;;;4.18;3.97;;;;;;;9.08;100.00;100842.16;6035059;23;20030;-70
2022/09/17 04:22:10;;;;;;;4.65;4.45;;;;;;;9.00;100.00;100823.34;6048469;23;20022;-70
2022/09/17 04:24:36;;;;;;;4.22;4.03;;;;;;;9.07;100.00;100835.22;6059094;23;20030;-70
2022/09/17 04:27:03;;;;;;;5.78;5.50;;;;;;;8.88;100.00;100826.44;6040161;23;20022;-70
2022/09/17 04:29:29;;;;;;;4.00;3.80;;;;;;;8.81;100.00;100807.56;6054884;23;20072;-70
2022/09/17 04:31:56;;;;;;;5.63;5.32;;;;;;;8.69;100.00;100793.22;6036731;23;20107;-70
2022/09/17 04:34:22;;;;;;;4.20;3.95;;;;;;;8.61;100.00;100803.19;6057320;23;20108;-70
2022/09/17 04:36:49;;;;;;;3.80;3.70;;;;;;;8.29;100.00;100750.41;6048418;23;20574;-70
2022/09/17 04:39:16;;;;;;;4.05;3.85;;;;;;;8.77;100.00;100869.63;6059748;23;20594;-70
2022/09/17 04:41:42;;;;;;;4.18;3.97;;;;;;;8.24;100.00;100781.16;6056816;23;20572;-70
2022/09/17 04:44:08;;;;;;;4.45;4.25;;;;;;;8.70;100.00;100825.47;6063648;23;20112;-70
2022/09/17 04:46:35;;;;;;;3.90;3.70;;;;;;;8.74;100.00;100837.50;6011894;23;21024;-70
2022/09/17 04:49:01;;;;;;;5.43;5.15;;;;;;;8.71;100.00;100848.97;6047428;23;20427;-70
2022/09/17 04:51:27;;;;;;;4.50;4.30;;;;;;;8.28;100.00;100780.13;6028336;23;20103;-70
2022/09/17 04:53:54;;;;;;;3.90;3.75;;;;;;;8.69;100.00;100844.72;6000776;23;20023;-71
2022/09/17 04:56:20;;;;;;;3.85;3.72;;;;;;;8.68;100.00;100846.50;6048790;23;20026;-70
2022/09/17 04:58:47;;;;;;;4.55;4.35;;;;;;;8.66;100.00;100845.72;6026205;23;20054;-71
2022/09/17 05:01:13;;;;;;;5.10;4.90;;;;;;;8.65;100.00;100844.00;6049328;23;20025;-70
2022/09/17 05:03:40;;;;;;;4.20;4.00;;;;;;;8.63;100.00;100852.81;6024052;23;20034;-71
2022/09/17 05:06:06;;;;;;;5.47;5.28;;;;;;;8.55;100.00;100848.75;6056057;23;20018;-71
2022/09/17 05:08:33;;;;;;;4.25;4.05;;;;;;;8.57;100.00;100849.53;6022745;23;20034;-70
2022/09/17 05:10:59;;;;;;;5.93;5.63;;;;;;;8.51;100.00;100846.34;6048435;23;20034;-70
2022/09/17 05:13:25;;;;;;;3.90;3.78;;;;;;;8.38;100.00;100861.66;6036258;23;20465;-70
2022/09/17 05:15:55;;;;;;;4.03;3.88;;;;;;;8.46;100.00;100850.88;6050799;23;20508;-70
2022/09/17 05:18:22;;;;;;;4.20;4.00;;;;;;;7.06;100.00;100613.50;6025381;23;20050;-71
2022/09/17 05:20:48;;;;;;;3.95;3.78;;;;;;;8.50;100.00;100848.09;6067110;23;20081;-71
2022/09/17 05:23:15;;;;;;;6.00;4.00;;;;;;;8.49;100.00;100856.84;6004119;23;20392;-70
2022/09/17 05:25:41;;;;;;;4.07;3.88;;;;;;;8.53;100.00;100854.97;6046126;23;20010;-69
2022/09/17 05:28:08;;;;;;;6.15;5.80;;;;;;;8.58;100.00;100861.72;6025262;23;20066;-70
2022/09/17 05:30:34;;;;;;;4.47;4.28;;;;;;;7.94;100.00;100752.75;6056503;23;20716;-69
2022/09/17 05:33:02;;;;;;;5.40;5.20;;;;;;;8.18;100.00;100773.56;5989706;23;20562;-70
2022/09/17 05:35:30;;;;;;;4.07;3.88;;;;;;;8.79;100.00;100856.50;6032714;23;20018;-70
2022/09/17 05:38:01;;;;;;;4.55;4.35;;;;;;;8.89;100.00;100854.34;6052712;23;20069;-69
2022/09/17 05:40:28;;;;;;;4.00;3.80;;;;;;;9.03;100.00;100862.44;6030733;23;20026;-69
2022/09/17 05:43:00;;;;;;;4.38;4.18;;;;;;;8.77;100.00;100817.31;6038824;23;20007;-69
2022/09/17 05:45:27;;;;;;;7.00;4.10;;;;;;;9.24;100.00;100870.28;5989212;23;20065;-69
2022/09/17 05:47:57;;;;;;;7.75;4.65;;;;;;;9.22;100.00;100853.78;6028696;23;20026;-69
2022/09/17 05:50:25;;;;;;;4.50;4.30;;;;;;;9.48;100.00;100874.47;6036173;23;20026;-69
2022/09/17 05:52:52;;;;;;;4.00;3.80;;;;;;;9.64;100.00;100890.34;6046201;23;20006;-69
2022/09/17 05:55:21;;;;;;;5.90;5.60;;;;;;;9.39;100.00;100812.00;6039662;23;20034;-70
2022/09/17 05:57:48;;;;;;;4.55;4.32;;;;;;;9.33;100.00;100797.41;6013557;23;20015;-69
2022/09/17 06:00:15;;;;;;;4.30;4.10;;;;;;;8.16;100.00;100577.56;6042939;23;20026;-69
2022/09/17 06:02:41;;;;;;;5.55;4.32;;;;;;;10.17;100.00;100883.53;6032547;23;20487;-69
2022/09/17 06:05:08;;;;;;;6.10;5.75;;;;;;;10.25;100.00;100889.25;6016644;23;20097;-69
2022/09/17 06:07:36;;;;;;;4.57;4.38;;;;;;;9.02;100.00;100672.28;6017447;23;20077;-71
2022/09/17 06:10:04;;;;;;;7.22;6.03;;;;;;;10.38;100.00;100884.28;5987403;23;20603;-71
2022/09/17 06:12:31;;;;;;;4.35;4.05;;;;;;;10.42;100.00;100888.44;6016185;23;20038;-71
2022/09/17 06:14:57;;;;;;;5.30;5.05;;;;;;;10.07;100.00;100829.81;6033587;23;20043;-69
2022/09/17 06:17:23;;;;;;;4.32;4.13;;;;;;;10.40;100.00;100895.56;6027431;23;20012;-69
2022/09/17 06:19:53;;;;;;;4.22;4.03;;;;;;;9.81;100.00;100797.81;6028595;23;20081;-69
2022/09/17 06:22:19;;;;;;;4.70;4.50;;;;;;;9.76;100.00;100795.44;6020745;23;20023;-69
2022/09/17 06:24:46;;;;;;;4.95;4.47;;;;;;;10.22;100.00;100875.44;6017354;23;20028;-69
2022/09/17 06:27:12;;;;;;;4.93;4.72;;;;;;;10.25;100.00;100891.03;5994931;23;20874;-69
2022/09/17 06:29:39;;;;;;;4.53;4.30;;;;;;;10.17;100.00;100897.47;6013766;23;20034;-69
2022/09/17 06:32:09;;;;;;;5.80;5.50;;;;;;;10.07;100.00;100898.84;6020225;23;20038;-69
2022/09/17 06:34:36;;;;;;;4.47;4.28;;;;;;;9.90;100.00;100873.41;6012713;23;20496;-69
2022/09/17 06:37:02;;;;;;;6.80;6.15;;;;;;;9.76;100.00;100850.47;6016411;23;20034;-70
2022/09/17 06:39:29;;;;;;;4.60;4.40;;;;;;;9.81;100.00;100886.94;6019032;23;20026;-69
2022/09/17 06:41:55;;;;;;;4.57;4.38;;;;;;;9.90;100.00;100901.38;6025836;23;20613;-70
2022/09/17 06:44:21;;;;;;;5.22;4.75;;;;;;;9.36;100.00;100828.69;6027893;23;20019;-70
2022/09/17 06:46:49;;;;;;;5.00;4.70;;;;;;;9.93;100.00;100912.59;6022513;23;20268;-70
2022/09/17 06:49:17;;;;;;;4.30;4.10;;;;;;;9.90;100.00;100901.38;6024266;23;20022;-70
2022/09/17 06:51:44;;;;;;;4.18;3.97;;;;;;;10.17;100.00;100907.13;6021396;23;20035;-70
2022/09/17 06:54:11;;;;;;;5.43;5.13;;;;;;;10.33;100.00;100921.25;6015562;23;20011;-70
2022/09/17 06:56:37;;;;;;;4.80;4.50;;;;;;;9.77;100.00;100804.97;6020956;23;20093;-70
2022/09/17 06:59:03;;;;;;;5.68;5.40;;;;;;;10.32;100.00;100853.09;6014002;23;20027;-70
2022/09/17 07:01:30;;;;;;;4.65;4.43;;;;;;;11.02;100.00;100913.53;6020570;23;20111;-70
2022/09/17 07:03:56;;;;;;;6.03;5.72;;;;;;;10.70;100.00;100840.69;6028060;23;20022;-70
2022/09/17 07:06:23;;;;;;;4.60;4.38;;;;;;;11.38;100.00;100918.66;6026596;23;20018;-70
2022/09/17 07:08:49;;;;;;;6.88;4.30;;;;;;;11.58;100.00;100938.66;6015692;23;20019;-70
2022/09/17 07:11:15;;;;;;;4.50;4.30;;;;;;;11.49;100.00;100897.09;6016958;23;20034;-70
2022/09/17 07:13:42;;;;;;;4.25;4.05;;;;;;;11.62;100.00;100928.84;6032530;23;20019;-70
2022/09/17 07:16:09;;;;;;;6.07;5.55;;;;;;;11.51;100.00;100925.00;6027020;23;20053;-70
2022/09/17 07:18:35;;;;;;;5.47;5.07;;;;;;;11.61;100.00;100919.25;6027436;23;20025;-71
2022/09/17 07:21:04;;;;;;;6.05;5.75;;;;;;;11.64;100.00;100922.56;6007178;23;20039;-70
2022/09/17 07:23:35;;;;;;;4.50;4.30;;;;;;;11.53;100.00;100930.19;6026911;23;20043;-70
2022/09/17 07:26:11;;;;;;;4.80;4.35;;;;;;;10.23;100.00;100743.38;6032277;23;20019;-70
2022/09/17 07:28:38;;;;;;;5.35;5.05;;;;;;;11.40;100.00;100884.44;6027000;23;20034;-70
2022/09/17 07:31:05;;;;;;;6.30;5.88;;;;;;;11.63;100.00;100901.63;6023185;23;20084;-70
2022/09/17 07:33:34;;;;;;;5.35;4.95;;;;;;;11.71;100.00;100918.69;6008475;23;20015;-71
2022/09/17 07:36:03;;;;;;;5.78;5.55;;;;;;;11.94;100.00;100954.28;5991520;23;20003;-70
2022/09/17 07:38:30;;;;;;;4.65;4.40;;;;;;;12.04;100.00;100916.97;5994280;23;20113;-69
2022/09/17 07:40:59;;;;;;;5.45;5.22;;;;;;;12.21;100.00;100924.78;6041427;23;20006;-71
2022/09/17 07:43:28;;;;;;;5.85;4.72;;;;;;;12.47;100.00;100914.56;6052042;23;20042;-70
2022/09/17 07:45:56;;;;;;;5.30;5.03;;;;;;;12.24;100.00;100886.94;6069636;23;20077;-69
2022/09/17 07:48:23;;;;;;;5.00;4.70;;;;;;;12.27;100.00;100863.09;6056575;23;20030;-69
2022/09/17 07:50:50;;;;;;;7.10;4.55;;;;;;;12.71;100.00;100921.09;6058033;23;20018;-71
2022/09/17 07:53:17;;;;;;;6.00;4.43;;;;;;;12.33;100.00;100852.22;6055798;23;20458;-70
2022/09/17 07:55:51;;;;;;;5.85;4.68;;;;;;;13.01;100.00;100924.63;6050285;23;20014;-71
2022/09/17 07:58:17;;;;;;;4.75;4.55;;;;;;;13.25;100.00;100930.25;6038076;23;20801;-69
2022/09/17 08:00:44;;;;;;;4.65;4.45;;;;;;;13.42;100.00;100906.41;6049439;23;20014;-71
2022/09/17 08:03:10;;;;;;;5.88;5.57;;;;;;;13.40;100.00;100884.53;6016249;23;20529;-71
2022/09/17 08:05:37;;;;;;;4.85;4.65;;;;;;;13.60;99.05;100920.25;6071777;23;20018;-72
2022/09/17 08:08:03;;;;;;;5.00;4.70;;;;;;;13.32;96.60;100895.56;6025484;23;20022;-72
2022/09/17 08:10:30;;;;;;;5.30;4.88;;;;;;;13.61;94.73;100929.00;6059998;23;20164;-72
2022/09/17 08:12:57;;;;;;;6.57;6.18;;;;;;;13.87;94.58;100925.63;6056126;23;20080;-71
2022/09/17 08:15:24;;;;;;;4.70;4.50;;;;;;;13.74;93.48;100870.13;6056568;23;20022;-72
2022/09/17 08:17:51;;;;;;;5.00;4.80;;;;;;;14.03;90.79;100891.19;6051204;23;20272;-71
2022/09/17 08:20:18;;;;;;;5.05;4.85;;;;;;;14.04;87.93;100866.47;6047962;23;20006;-71
2022/09/17 08:22:45;;;;;;;5.28;4.93;;;;;;;13.76;86.81;100798.81;6043456;23;21181;-70
2022/09/17 08:25:16;;;;;;;5.20;4.90;;;;;;;14.60;86.36;100935.09;6046767;23;20082;-70
2022/09/17 08:27:42;;;;;;;4.82;4.63;;;;;;;14.35;85.17;100864.50;6049330;23;20021;-70
2022/09/17 08:30:09;;;;;;;6.05;5.70;;;;;;;14.26;84.33;100873.88;6044134;23;20072;-70
2022/09/17 08:32:35;;;;;;;4.97;4.68;;;;;;;14.63;85.73;100931.38;6050690;23;20088;-69
2022/09/17 08:35:02;;;;;;;6.18;5.88;;;;;;;14.31;85.84;100921.09;6052460;23;20006;-70
2022/09/17 08:37:31;;;;;;;5.88;5.47;;;;;;;14.39;85.05;100933.78;6060784;23;20026;-69
2022/09/17 08:39:58;;;;;;;6.93;6.20;;;;;;;14.23;86.31;100939.22;6048546;23;20506;-70
2022/09/17 08:42:45;;;;;;;5.53;5.13;;;;;;;13.79;85.01;100919.97;6065296;23;20455;-70
2022/09/17 08:45:13;;;;;;;5.40;5.10;;;;;;;13.36;88.17;100881.25;6038096;23;20073;-69
2022/09/17 08:47:45;;;;;;;5.40;5.10;;;;;;;13.32;88.86;100871.84;6050296;23;20203;-70
2022/09/17 08:50:33;;;;;;;4.93;4.72;;;;;;;13.98;86.30;100961.88;6049405;23;20026;-69
2022/09/17 08:53:22;;;;;;;5.28;5.07;;;;;;;13.92;86.72;100955.19;6040149;23;20096;-70
2022/09/17 08:56:10;;;;;;;8.00;4.97;;;;;;;13.89;87.09;100899.13;6040788;23;20439;-70
2022/09/17 08:59:01;;;;;;;5.45;5.05;;;;;;;14.48;84.74;100962.25;6039784;23;20038;-70
2022/09/17 09:01:40;;;;;;;5.07;4.88;;;;;;;13.83;81.74;100879.25;6046760;23;20026;-70
2022/09/17 09:04:26;;;;;;;6.25;5.95;;;;;;;13.68;82.99;100853.84;6040190;23;20085;-70
2022/09/17 09:07:11;;;;;;;5.60;5.30;;;;;;;14.46;79.29;100946.50;6043144;23;20034;-70
2022/09/17 09:09:45;;;;;;;5.00;4.80;;;;;;;14.61;79.31;100946.50;6047379;23;20502;-70
2022/09/17 09:12:21;;;;;;;6.50;4.93;;;;;;;14.46;79.93;100891.06;6058384;23;20022;-69
2022/09/17 09:14:59;;;;;;;4.95;4.65;;;;;;;15.07;79.10;100956.66;6042166;23;20023;-70
2022/09/17 09:17:37;;;;;;;5.28;4.97;;;;;;;15.49;78.13;100946.75;6051527;23;20042;-70
2022/09/17 09:20:04;;;;;;;5.25;4.95;;;;;;;15.97;74.70;100954.06;6061063;23;20636;-69
2022/09/17 09:22:49;;;;;;;5.38;4.97;;;;;;;15.63;73.46;100940.53;6041458;23;20023;-69
2022/09/17 09:25:31;;;;;;;5.57;5.25;;;;;;;15.63;73.83;100945.81;6049613;23;20006;-69
2022/09/17 09:28:34;;;;;;;5.85;5.55;;;;;;;15.41;73.36;100954.38;6026687;23;20120;-70
2022/09/17 09:31:26;;;;;;;5.80;5.50;;;;;;;15.55;74.82;100954.28;6053474;23;20022;-70
2022/09/17 09:33:54;;;;;;;5.85;5.38;;;;;;;15.06;73.08;100902.97;6040733;23;20546;-70
2022/09/17 09:36:20;;;;;;;12.60;5.03;;;;;;;14.61;74.48;100838.19;6049929;23;20084;-70
2022/09/17 09:39:01;;;;;;;5.50;5.20;;;;;;;15.26;74.62;100961.56;6053357;23;20104;-69
2022/09/17 09:41:57;;;;;;;5.15;4.85;;;;;;;15.06;74.89;100942.59;6039615;23;20069;-69
2022/09/17 09:44:24;;;;;;;4.70;4.50;;;;;;;14.83;73.10;100919.50;6014793;23;20022;-69
2022/09/17 09:47:12;;;;;;;5.10;4.88;;;;;;;15.62;74.39;100965.31;6014689;23;20080;-69
2022/09/17 09:49:42;;;;;;;5.75;5.13;;;;;;;15.94;72.88;100971.88;6030815;23;20033;-70
2022/09/17 09:52:34;;;;;;;6.55;6.05;;;;;;;15.81;72.14;100967.53;6023597;23;20027;-69
2022/09/17 09:55:32;;;;;;;6.18;5.88;;;;;;;16.11;70.76;100964.53;6016861;23;20034;-70
2022/09/17 09:58:11;;;;;;;6.55;6.15;;;;;;;15.85;72.42;100963.72;6013199;23;20027;-70
2022/09/17 10:00:41;;;;;;;5.20;5.00;;;;;;;14.68;70.57;100807.78;6029621;23;20025;-70
2022/09/17 10:03:20;;;;;;;6.35;6.05;;;;;;;15.54;70.33;100971.94;6025458;23;20035;-70
2022/09/17 10:05:57;;;;;;;5.18;4.97;;;;;;;15.83;70.20;100977.06;6031584;23;20085;-70
2022/09/17 10:08:24;;;;;;;5.63;5.15;;;;;;;15.01;69.95;100791.41;5995624;23;20027;-70
2022/09/17 10:11:23;;;;;;;4.90;4.70;;;;;;;16.49;68.16;100958.25;6023214;23;20103;-70
2022/09/17 10:13:50;;;;;;;5.30;5.00;;;;;;;16.84;67.24;100952.19;5999808;23;20107;-70
2022/09/17 10:16:19;;;;;;;7.07;5.20;;;;;;;16.62;66.63;100953.78;6021282;23;20027;-70
2022/09/17 10:18:47;;;;;;;5.00;4.80;;;;;;;16.13;67.50;100942.25;6018625;23;20508;-70
2022/09/17 10:21:22;;;;;;;5.43;5.13;;;;;;;15.86;68.46;100893.97;6008933;23;20031;-70
2022/09/17 10:23:49;;;;;;;5.35;4.93;;;;;;;15.38;67.62;100865.53;6011878;23;19999;-70
2022/09/17 10:26:35;;;;;;;5.90;5.30;;;;;;;15.82;71.41;100959.50;6021143;23;20766;-70
2022/09/17 10:29:05;;;;;;;6.55;6.05;;;;;;;15.03;75.48;100897.03;6014840;23;20078;-69
2022/09/17 10:31:51;;;;;;;5.85;5.20;;;;;;;14.96;79.84;100966.16;5925328;23;20130;-70
2022/09/17 10:34:24;;;;;;;4.90;4.70;;;;;;;14.85;77.93;100963.38;6007857;23;20480;-69
2022/09/17 10:36:50;;;;;;;;;;;;;;;14.88;76.73;100952.59;6006865;23;20035;-70
2022/09/17 10:39:26;;;;;;;5.20;4.90;;;;;;;15.35;73.75;100943.28;6019692;23;19919;-70
2022/09/17 10:42:00;;;;;;;4.90;4.70;;;;;;;15.66;70.13;100935.88;6025047;23;20042;-70
2022/09/17 10:44:29;;;;;;;5.00;4.80;;;;;;;15.40;69.54;100882.13;6029760;23;20049;-70
2022/09/17 10:47:03;;;;;;;5.85;5.60;;;;;;;15.67;72.82;100942.00;6027769;23;20015;-70
2022/09/17 10:49:40;;;;;;;5.53;5.22;;;;;;;15.54;71.17;100942.84;6034007;23;20030;-70
2022/09/17 10:52:13;;;;;;;6.05;5.75;;;;;;;15.77;67.31;100940.44;6027971;23;20026;-70
2022/09/17 10:55:24;;;;;;;5.50;5.00;;;;;;;15.91;66.05;100897.94;6023768;23;20054;-69
2022/09/17 10:58:08;;;;;;;5.00;4.80;;;;;;;16.70;67.14;100940.78;5989354;23;20035;-69
2022/09/17 11:00:58;;;;;;;7.05;4.97;;;;;;;17.23;64.07;100927.13;6012297;23;20593;-70
2022/09/17 11:03:36;;;;;;;5.15;4.88;;;;;;;16.79;62.50;100920.69;6022746;23;20085;-70
2022/09/17 11:06:14;;;;;;;6.88;6.47;;;;;;;16.64;64.89;100925.34;6008182;23;20039;-70
2022/09/17 11:09:06;;;;;;;5.05;4.85;;;;;;;16.35;64.69;100935.44;6030984;23;20035;-70
2022/09/17 11:11:42;;;;;;;4.97;4.78;;;;;;;16.77;64.39;100938.53;6001440;23;20033;-69
2022/09/17 11:14:34;;;;;;;5.35;4.95;;;;;;;17.06;59.06;100943.47;6018062;23;20026;-70
2022/09/17 11:17:32;;;;;;;5.90;5.60;;;;;;;17.06;56.78;100920.47;6010267;23;20528;-69
2022/09/17 11:20:02;;;;;;;6.10;5.80;;;;;;;16.89;58.88;100923.53;6028852;23;20018;-70
2022/09/17 11:22:48;;;;;;;5.50;5.20;;;;;;;17.01;60.32;100837.78;6025090;23;20019;-70
2022/09/17 11:25:27;;;;;;;5.90;5.50;;;;;;;18.26;58.82;100934.16;6036385;23;20424;-70
2022/09/17 11:28:04;;;;;;;6.18;5.32;;;;;;;17.92;57.42;100895.22;6028051;23;20019;-70
2022/09/17 11:30:47;;;;;;;5.25;5.05;;;;;;;17.50;59.42;100950.69;6030235;23;20025;-70
2022/09/17 11:33:26;;;;;;;5.70;5.40;;;;;;;16.21;68.15;100967.38;6024557;23;20031;-70
2022/09/17 11:36:00;;;;;;;5.00;4.80;;;;;;;15.40;75.70;100993.22;6046829;23;20552;-70
2022/09/17 11:38:42;;;;;;;5.22;5.00;;;;;;;14.66;84.86;100974.31;6022074;23;20027;-69
2022/09/17 11:41:32;;;;;;;6.45;6.15;;;;;;;13.74;99.67;101014.34;6036000;23;20022;-70
2022/09/17 11:44:09;;;;;;;6.05;5.75;;;;;;;13.56;100.00;101021.56;6018333;23;20562;-70
2022/09/17 11:46:45;;;;;;;4.93;4.72;;;;;;;13.36;100.00;101012.22;6034672;23;20575;-70
2022/09/17 11:49:42;;;;;;;5.22;4.93;;;;;;;13.26;100.00;101008.38;6026602;23;20027;-72